Flight Track Log - Related Links

Times and Time Zones

All times are in EDT time to prevent confusion due to time zone crossing. See the UAL33 flight status page for this flight to view local times or setup timezone preferences in your user account.

Time Position Orientation Groundspeed Altitude Reporting Facility
EDT Latitude Longitude Course Direction KTS MPH feet Rate Location/Type
Thu 05:28:48 AM 35.7220 140.4070 150° Southeast 171 197 2,400  Level FlightAware
Thu 05:29:09 AM 35.6990 140.4230 151° Southeast 174 200 3,500 2,049 Climbing FlightAware
Thu 05:29:29 AM 35.6840 140.4340 149° Southeast 202 232 3,800 923 Climbing FlightAware
Thu 05:29:48 AM 35.6680 140.4450 151° Southeast 225 259 4,100 1,500 Climbing FlightAware
Thu 05:30:09 AM 35.6490 140.4590 149° Southeast 241 277 4,800 1,784 Climbing FlightAware
Thu 05:30:25 AM 35.6310 140.4710 152° Southeast 257 296 5,200 2,057 Climbing FlightAware
Thu 05:30:44 AM 35.6120 140.4850 149° Southeast 264 304 6,000 2,500 Climbing FlightAware
Thu 05:31:01 AM 35.5940 140.4990 148° Southeast 269 310 6,700 2,432 Climbing FlightAware
Thu 05:31:21 AM 35.5720 140.5140 151° Southeast 276 318 7,500 1,950 Climbing FlightAware
Thu 05:31:41 AM 35.5490 140.5310 149° Southeast 283 326 8,000 900 Climbing FlightAware
Thu 05:32:01 AM 35.5280 140.5460 150° Southeast 286 329 8,100 200 Climbing FlightAware
Thu 05:32:11 AM 35.5180 140.5580 136° Southeast 291 335 8,100 -207 Level FlightAware
Thu 05:32:30 AM 35.5010 140.5820 131° Southeast 294 338 8,000 -150 Descending FlightAware
Thu 05:32:51 AM 35.4830 140.6090 129° Southeast 296 341 8,000  Level FlightAware
Thu 05:33:11 AM 35.4670 140.6360 126° Southeast 299 344 8,000  Level FlightAware
Thu 05:33:35 AM 35.4520 140.6740 116° Southeast 301 346 8,000  Level FlightAware
Thu 05:33:55 AM 35.4410 140.7050 114° Southeast 301 346 8,000  Level FlightAware
Thu 05:34:15 AM 35.4300 140.7370 113° Southeast 300 345 8,000  Level FlightAware
Thu 05:34:36 AM 35.4180 140.7690 115° Southeast 301 346 8,000  Level FlightAware
Thu 05:34:55 AM 35.4080 140.7970 114° Southeast 300 345 8,000 146 Level FlightAware
Thu 05:35:17 AM 35.3960 140.8330 112° Southeast 300 345 8,100 1,435 Climbing FlightAware
Thu 05:35:41 AM 35.3830 140.8690 114° Southeast 301 346 9,100 2,647 Climbing FlightAware
Thu 05:35:51 AM 35.3760 140.8870 115° Southeast 302 348 9,600 2,000 Climbing FlightAware
Thu 05:36:29 AM 35.3550 140.9470 113° Southeast 324 373 10,700 1,403 Climbing FlightAware
Thu 05:37:08 AM 35.3300 141.0160 114° Southeast 359 413 11,400 1,135 Climbing FlightAware
Thu 05:37:43 AM 35.3050 141.0820 115° Southeast 393 452 12,100 1,606 Climbing FlightAware
Thu 05:38:19 AM 35.2760 141.1590 115° Southeast 403 464 13,300 2,000 Climbing FlightAware
Thu 05:38:55 AM 35.2490 141.2290 115° Southeast 413 475 14,500 1,853 Climbing FlightAware
Thu 05:39:27 AM 35.2230 141.3010 114° Southeast 418 481 15,400 1,684 Climbing FlightAware
Thu 05:39:52 AM 35.2130 141.3560 103° East 428 493 16,100 1,684 Climbing FlightAware
Thu 05:40:24 AM 35.2160 141.4370 87° East 442 509 17,000 1,254 Climbing FlightAware
Thu 05:40:59 AM 35.2380 141.5260 73° East 469 540 17,500 1,244 Climbing FlightAware
Thu 05:41:46 AM 35.2700 141.6410 71° East 478 550 18,700 1,537 Climbing FlightAware
Thu 05:42:21 AM 35.2960 141.7300 70° East 485 558 19,600 1,583 Climbing FlightAware
Thu 05:42:58 AM 35.3230 141.8290 71° East 492 566 20,600 1,500 Climbing FlightAware
Thu 05:43:41 AM 35.3560 141.9450 71° East 499 574 21,600 1,350 Climbing FlightAware
Thu 05:44:18 AM 35.3810 142.0350 71° East 502 578 22,400 1,391 Climbing FlightAware
Thu 05:44:50 AM 35.4080 142.1350 72° East 510 587 23,200 1,412 Climbing FlightAware
Thu 05:45:26 AM 35.4320 142.2400 74° East 514 592 24,000 1,043 Climbing FlightAware
Thu 05:45:59 AM 35.4500 142.3210 75° East 522 601 24,400 1,083 Climbing FlightAware
Thu 05:46:38 AM 35.4780 142.4400 74° East 528 608 25,300 1,151 Climbing FlightAware
Thu 05:47:12 AM 35.4980 142.5270 74° East 533 613 25,800 986 Climbing FlightAware
Thu 05:47:51 AM 35.5280 142.6530 74° East 492 566 26,500 1,063 Climbing FlightAware
Thu 05:48:31 AM 35.5560 142.7760 74° East 545 627 27,200 667 Climbing FlightAware
Thu 05:49:12 AM 35.5790 142.8760 74° East 546 628 27,400 635 Climbing FlightAware
Thu 05:49:56 AM 35.6090 143.0070 74° East 550 633 28,100 525 Climbing FlightAware
Thu 05:50:32 AM 35.6310 143.0990 74° East 550 633 28,100  Level FlightAware
Thu 05:51:09 AM 35.6530 143.1940 74° East 550 633 28,100 2,769 Level FlightAware
Thu 05:51:50 AM 35.6900 143.3640 75° East 532 612 31,700 3,333 Climbing FlightAware
Thu 05:52:30 AM 35.7160 143.4800 75° East 528 608 32,600 897 Climbing FlightAware
Thu 05:53:17 AM 35.7420 143.5950 74° East 526 605 33,000 289 Climbing FlightAware
Thu 05:53:53 AM 35.7610 143.6830 75° East 526 605 33,000  Level FlightAware
Thu 05:54:29 AM 35.7800 143.7720 75° East 526 605 33,000 2,419 Level FlightAware
Thu 05:54:55 AM 35.8070 143.8910 74° East 519 597 35,500 2,308 Climbing FlightAware
Thu 05:55:34 AM 35.8280 143.9860 75° East 519 597 35,500  Level FlightAware
Thu 05:56:11 AM 35.8480 144.0760 75° East 519 597 35,500  Level FlightAware
Thu 05:56:47 AM 35.8670 144.1630 75° East 519 597 35,500  Level FlightAware
Thu 05:57:23 AM 35.8860 144.2510 75° East 519 597 35,500  Level FlightAware
Thu 05:58:00 AM 35.9050 144.3410 75° East 519 597 35,500  Level FlightAware
Thu 05:58:36 AM 35.9240 144.4290 75° East 519 597 35,500 1,286 Level FlightAware
Thu 05:59:10 AM 35.9670 144.6270 75° East 520 598 37,000 1,139 Climbing FlightAware
Thu 05:59:55 AM 35.9940 144.7560 75° East 520 598 37,000  Level FlightAware
Thu 06:00:38 AM 36.0160 144.8550 75° East 521 600 37,000  Level FlightAware
Thu 06:01:14 AM 36.0350 144.9430 75° East 521 600 37,000  Level FlightAware
Thu 06:01:50 AM 36.0540 145.0310 75° East 521 600 37,000  Level FlightAware
Thu 06:02:27 AM 36.0730 145.1220 75° East 521 600 37,000  Level FlightAware
Thu 06:03:03 AM 36.0920 145.2100 75° East 521 600 37,000  Level FlightAware
Thu 06:03:39 AM 36.1110 145.2980 75° East 521 600 37,000  Level FlightAware
Thu 06:04:15 AM 36.1310 145.3870 74° East 521 600 37,000  Level FlightAware
Thu 06:04:48 AM 36.1980 145.5860 67° East 523 602 37,000  Level FlightAware
Thu 06:05:31 AM 36.2390 145.6750 60° Northeast 524 603 37,000  Level FlightAware
Thu 06:06:08 AM 36.2770 145.7570 60° Northeast 524 603 37,000  Level FlightAware
Thu 06:06:44 AM 36.3140 145.8370 60° Northeast 524 603 37,000  Level FlightAware
Thu 06:07:20 AM 36.3510 145.9170 60° Northeast 524 603 37,000  Level FlightAware
Thu 06:07:56 AM 36.3880 145.9960 60° Northeast 524 603 37,000  Level FlightAware
Thu 06:08:32 AM 36.4260 146.0760 59° Northeast 524 603 37,000  Level FlightAware
Thu 06:09:08 AM 36.4630 146.1560 60° Northeast 524 603 37,000  Level FlightAware
Thu 06:09:44 AM 36.5000 146.2360 60° Northeast 524 603 37,000  Level FlightAware
Thu 06:10:20 AM 36.5370 146.3160 60° Northeast 524 603 37,000  Level FlightAware
Thu 06:10:57 AM 36.5750 146.3980 60° Northeast 524 603 37,000  Level FlightAware
Thu 06:11:32 AM 36.6110 146.4760 60° Northeast 524 603 37,000  Level FlightAware
Thu 06:12:08 AM 36.6480 146.5560 60° Northeast 524 603 37,000  Level FlightAware
Thu 06:12:44 AM 36.6850 146.6360 60° Northeast 524 603 37,000  Level FlightAware
Thu 06:13:20 AM 36.7220 146.7160 60° Northeast 524 603 37,000  Level FlightAware
Thu 06:13:56 AM 36.7590 146.7970 60° Northeast 524 603 37,000  Level FlightAware
Thu 06:14:32 AM 36.7960 146.8770 60° Northeast 524 603 37,000  Level FlightAware
Thu 06:17:00 AM 36.9803 147.2692 59° Northeast  Level Estimated
Thu 06:18:00 AM 37.0546 147.4288 60° Northeast  Level Estimated
Thu 06:19:00 AM 37.1287 147.5886 60° Northeast  Level Estimated
Thu 06:20:00 AM 37.2026 147.7488 60° Northeast  Level Estimated
Thu 06:21:00 AM 37.2763 147.9093 60° Northeast  Level Estimated
Thu 06:22:00 AM 37.3498 148.0701 60° Northeast  Level Estimated
Thu 06:23:00 AM 37.4231 148.2312 60° Northeast  Level Estimated
Thu 06:24:00 AM 37.4961 148.3926 60° Northeast  Level Estimated
Thu 06:25:00 AM 37.5689 148.5543 60° Northeast  Level Estimated
Thu 06:26:00 AM 37.6415 148.7164 60° Northeast  Level Estimated
Thu 06:27:00 AM 37.7139 148.8788 61° Northeast  Level Estimated
Thu 06:28:00 AM 37.7860 149.0414 61° Northeast  Level Estimated
Thu 06:29:00 AM 37.8580 149.2045 61° Northeast  Level Estimated
Thu 06:30:00 AM 37.9297 149.3678 61° Northeast  Level Estimated
Thu 06:31:00 AM 38.0011 149.5314 61° Northeast  Level Estimated
Thu 06:32:00 AM 38.0724 149.6954 61° Northeast  Level Estimated
Thu 06:33:00 AM 38.1434 149.8597 61° Northeast  Level Estimated
Thu 06:34:00 AM 38.2142 150.0243 61° Northeast  Level Estimated
Thu 06:35:00 AM 38.2848 150.1892 61° Northeast  Level Estimated
Thu 06:36:00 AM 38.3551 150.3544 61° Northeast  Level Estimated
Thu 06:37:00 AM 38.4252 150.5200 62° Northeast  Level Estimated
Thu 06:38:00 AM 38.4950 150.6859 62° Northeast  Level Estimated
Thu 06:39:00 AM 38.5647 150.8521 62° Northeast  Level Estimated
Thu 06:40:00 AM 38.6341 151.0186 62° Northeast  Level Estimated
Thu 06:41:00 AM 38.7032 151.1855 62° Northeast  Level Estimated
Thu 06:42:00 AM 38.7721 151.3526 62° Northeast  Level Estimated
Thu 06:43:00 AM 38.8408 151.5201 62° Northeast  Level Estimated
Thu 06:44:00 AM 38.9093 151.6879 62° Northeast  Level Estimated
Thu 06:45:00 AM 38.9775 151.8561 62° Northeast  Level Estimated
Thu 06:46:00 AM 39.0454 152.0245 63° Northeast  Level Estimated
Thu 06:47:00 AM 39.1131 152.1933 63° Northeast  Level Estimated
Thu 06:48:00 AM 39.1806 152.3624 63° Northeast  Level Estimated
Thu 06:49:00 AM 39.2478 152.5319 63° Northeast  Level Estimated
Thu 06:50:00 AM 39.3260 152.7300 63° Northeast  Level Estimated
Thu 06:51:00 AM 39.4037 152.9285 63° Northeast  Level Estimated
Thu 06:52:00 AM 39.4812 153.1275 63° Northeast  Level Estimated
Thu 06:53:00 AM 39.5583 153.3269 63° Northeast  Level Estimated
Thu 06:54:00 AM 39.6350 153.5267 63° Northeast  Level Estimated
Thu 06:55:00 AM 39.7114 153.7270 64° Northeast  Level Estimated
Thu 06:56:00 AM 39.7875 153.9278 64° Northeast  Level Estimated
Thu 06:57:00 AM 39.8633 154.1290 64° Northeast  Level Estimated
Thu 06:58:00 AM 39.9386 154.3306 64° Northeast  Level Estimated
Thu 06:59:00 AM 40.0137 154.5327 64° Northeast  Level Estimated
Thu 07:00:00 AM 40.0883 154.7352 64° Northeast  Level Estimated
Thu 07:01:00 AM 40.1627 154.9381 64° Northeast  Level Estimated
Thu 07:02:00 AM 40.2366 155.1415 64° Northeast  Level Estimated
Thu 07:03:00 AM 40.3103 155.3454 65° Northeast  Level Estimated
Thu 07:04:00 AM 40.3835 155.5497 65° Northeast  Level Estimated
Thu 07:05:00 AM 40.4564 155.7544 65° Northeast  Level Estimated
Thu 07:06:00 AM 40.5289 155.9596 65° Northeast  Level Estimated
Thu 07:07:00 AM 40.6011 156.1652 65° Northeast  Level Estimated
Thu 07:08:00 AM 40.6729 156.3713 65° Northeast  Level Estimated
Thu 07:09:00 AM 40.7443 156.5778 65° Northeast  Level Estimated
Thu 07:10:00 AM 40.8154 156.7847 66° East  Level Estimated
Thu 07:11:00 AM 40.8861 156.9922 66° East  Level Estimated
Thu 07:12:00 AM 40.9564 157.2000 66° East  Level Estimated
Thu 07:13:00 AM 41.0264 157.4083 66° East  Level Estimated
Thu 07:14:00 AM 41.0960 157.6170 66° East  Level Estimated
Thu 07:15:00 AM 41.1651 157.8262 66° East  Level Estimated
Thu 07:16:00 AM 41.2340 158.0358 66° East  Level Estimated
Thu 07:17:00 AM 41.3024 158.2458 66° East  Level Estimated
Thu 07:18:00 AM 41.3705 158.4563 67° East  Level Estimated
Thu 07:19:00 AM 41.4381 158.6672 67° East  Level Estimated
Thu 07:20:00 AM 41.5054 158.8786 67° East  Level Estimated
Thu 07:21:00 AM 41.5723 159.0903 67° East  Level Estimated
Thu 07:22:00 AM 41.6388 159.3026 67° East  Level Estimated
Thu 07:23:00 AM 41.7049 159.5153 67° East  Level Estimated
Thu 07:24:00 AM 41.7707 159.7284 67° East  Level Estimated
Thu 07:25:00 AM 41.8360 159.9419 68° East  Level Estimated
Thu 07:26:00 AM 41.9009 160.1559 68° East  Level Estimated
Thu 07:27:00 AM 41.9655 160.3703 68° East  Level Estimated
Thu 07:28:00 AM 42.0296 160.5852 68° East  Level Estimated
Thu 07:29:00 AM 42.0841 160.7693 68° East  Level Estimated
Thu 07:30:00 AM 42.1384 160.9538 68° East  Level Estimated
Thu 07:31:00 AM 42.1923 161.1386 68° East  Level Estimated
Thu 07:32:00 AM 42.2460 161.3237 69° East  Level Estimated
Thu 07:33:00 AM 42.2994 161.5092 69° East  Level Estimated
Thu 07:34:00 AM 42.3525 161.6949 69° East  Level Estimated
Thu 07:35:00 AM 42.4052 161.8810 69° East  Level Estimated
Thu 07:36:00 AM 42.4577 162.0673 69° East  Level Estimated
Thu 07:37:00 AM 42.5098 162.2540 69° East  Level Estimated
Thu 07:38:00 AM 42.5617 162.4410 69° East  Level Estimated
Thu 07:39:00 AM 42.6133 162.6283 69° East  Level Estimated
Thu 07:40:00 AM 42.6645 162.8159 70° East  Level Estimated
Thu 07:41:00 AM 42.7155 163.0038 70° East  Level Estimated
Thu 07:42:00 AM 42.7661 163.1920 70° East  Level Estimated
Thu 07:43:00 AM 42.8164 163.3806 70° East  Level Estimated
Thu 07:44:00 AM 42.8665 163.5694 70° East  Level Estimated
Thu 07:45:00 AM 42.9162 163.7586 70° East  Level Estimated
Thu 07:46:00 AM 42.9655 163.9480 70° East  Level Estimated
Thu 07:47:00 AM 43.0146 164.1378 70° East  Level Estimated
Thu 07:48:00 AM 43.0634 164.3278 71° East  Level Estimated
Thu 07:49:00 AM 43.1119 164.5182 71° East  Level Estimated
Thu 07:50:00 AM 43.1600 164.7088 71° East  Level Estimated
Thu 07:51:00 AM 43.2078 164.8998 71° East  Level Estimated
Thu 07:52:00 AM 43.2553 165.0910 71° East  Level Estimated
Thu 07:53:00 AM 43.3025 165.2826 71° East  Level Estimated
Thu 07:54:00 AM 43.3493 165.4744 71° East  Level Estimated
Thu 07:55:00 AM 43.3959 165.6666 72° East  Level Estimated
Thu 07:56:00 AM 43.4421 165.8590 72° East  Level Estimated
Thu 07:57:00 AM 43.4880 166.0517 72° East  Level Estimated
Thu 07:58:00 AM 43.5336 166.2448 72° East  Level Estimated
Thu 07:59:00 AM 43.5788 166.4381 72° East  Level Estimated
Thu 08:00:00 AM 43.6237 166.6317 72° East  Level Estimated
Thu 08:01:00 AM 43.6683 166.8256 72° East  Level Estimated
Thu 08:02:00 AM 43.7126 167.0197 72° East  Level Estimated
Thu 08:03:00 AM 43.7565 167.2142 73° East  Level Estimated
Thu 08:04:00 AM 43.8002 167.4090 73° East  Level Estimated
Thu 08:05:00 AM 43.8434 167.6040 73° East  Level Estimated
Thu 08:05:24 AM 42.5333 167.2167 76° East 520 598 37,000  Level Oakland Oceanic
Thu 08:06:00 AM 43.8864 167.7993 73° East  Level Estimated
Thu 08:07:00 AM 43.9290 167.9949 73° East  Level Estimated
Thu 08:08:00 AM 43.9712 168.1908 73° East  Level Estimated
Thu 08:09:00 AM 44.0132 168.3869 73° East  Level Estimated
Thu 08:10:00 AM 44.0548 168.5834 74° East  Level Estimated
Thu 08:11:00 AM 42.7281 168.3250 77° East 520 598 37,000  Level FlightAware
Thu 08:12:00 AM 42.7595 168.5103 77° East 520 598 37,000  Level FlightAware
Thu 08:13:00 AM 42.7906 168.6959 77° East 520 598 37,000  Level FlightAware
Thu 08:14:00 AM 42.8214 168.8817 77° East 520 598 37,000  Level FlightAware
Thu 08:15:00 AM 42.8520 169.0676 77° East 520 598 37,000  Level FlightAware
Thu 08:16:00 AM 42.8822 169.2537 78° East 520 598 37,000  Level FlightAware
Thu 08:17:00 AM 42.9121 169.4400 78° East 520 598 37,000  Level FlightAware
Thu 08:18:00 AM 42.9417 169.6265 78° East 520 598 37,000  Level FlightAware
Thu 08:19:00 AM 42.9710 169.8132 78° East 520 598 37,000  Level FlightAware
Thu 08:19:26 AM 42.9833 169.8500 81° East 520 598 37,000  Level Oakland Oceanic
Thu 08:20:00 AM 43.0000 170.0000 87° East 520 598 37,000  Level FlightAware
Thu 08:20:10 AM 43.0000 170.0000 87° East 539 620 37,000  Level Oakland Oceanic
Thu 08:21:00 AM 43.0087 170.2036 87° East 520 598 37,000  Level FlightAware
Thu 08:22:00 AM 43.0171 170.4073 87° East 520 598 37,000  Level FlightAware
Thu 08:23:00 AM 43.0250 170.6111 87° East 520 598 37,000  Level FlightAware
Thu 08:24:00 AM 43.0326 170.8148 87° East 520 598 37,000  Level FlightAware
Thu 08:25:00 AM 43.0399 171.0187 87° East 520 598 37,000  Level FlightAware
Thu 08:26:00 AM 43.0468 171.2226 87° East 539 620 37,000  Level FlightAware
Thu 08:27:00 AM 43.0533 171.4265 88° East 539 620 37,000  Level FlightAware
Thu 08:28:00 AM 43.0595 171.6305 88° East 539 620 37,000  Level FlightAware
Thu 08:29:00 AM 43.0653 171.8345 88° East 539 620 37,000  Level FlightAware
Thu 08:30:00 AM 43.0708 172.0385 88° East 539 620 37,000  Level FlightAware
Thu 08:31:00 AM 43.0759 172.2426 88° East 539 620 37,000  Level FlightAware
Thu 08:32:00 AM 43.0806 172.4467 88° East 539 620 37,000  Level FlightAware
Thu 08:33:00 AM 43.0849 172.6509 88° East 539 620 37,000 1,714 Level FlightAware
Thu 08:33:10 AM 43.0833 172.6167 88° East 546 628 39,000  Climbing Oakland Oceanic
Thu 08:34:00 AM 43.0889 172.8551 89° East 539 620 37,000 -1,091 Descending FlightAware
Thu 08:35:00 AM 43.0926 173.0593 89° East 539 620 37,000  Level FlightAware
Thu 08:36:00 AM 43.0958 173.2635 89° East 539 620 37,000  Level FlightAware
Thu 08:37:00 AM 43.0988 173.4677 89° East 539 620 37,000  Level FlightAware
Thu 08:38:00 AM 43.1013 173.6720 89° East 539 620 37,000 1,000 Level FlightAware
Thu 08:39:00 AM 43.1024 173.8477 89° East 546 628 39,000 1,000 Climbing FlightAware
Thu 08:40:00 AM 43.1043 174.0530 89° East 546 628 39,000  Level FlightAware
Thu 08:41:00 AM 43.1059 174.2582 89° East 546 628 39,000  Level FlightAware
Thu 08:42:00 AM 43.1070 174.4635 90° East 546 628 39,000  Level FlightAware
Thu 08:43:00 AM 43.1078 174.6688 90° East 546 628 39,000  Level FlightAware
Thu 08:44:00 AM 43.1083 174.8740 90° East 546 628 39,000  Level FlightAware
Thu 08:45:00 AM 43.1083 175.0793 90° East 546 628 39,000  Level FlightAware
Thu 08:46:00 AM 43.1080 175.2846 90° East 546 628 39,000  Level FlightAware
Thu 08:47:00 AM 43.1074 175.4899 90° East 546 628 39,000  Level FlightAware
Thu 08:47:01 AM 43.1000 175.5000 90° East 557 641 39,000  Level Oakland Oceanic
Thu 08:48:00 AM 43.1063 175.6951 90° East 546 628 39,000  Level FlightAware
Thu 08:49:00 AM 43.1049 175.9004 91° East 546 628 39,000  Level FlightAware
Thu 08:50:00 AM 43.1032 176.1056 91° East 546 628 39,000  Level FlightAware
Thu 08:51:00 AM 43.1010 176.3108 91° East 546 628 39,000  Level FlightAware
Thu 08:52:00 AM 43.0985 176.5161 91° East 546 628 39,000  Level FlightAware
Thu 08:53:00 AM 43.0894 176.7870 91° East 557 641 39,000  Level FlightAware
Thu 08:54:00 AM 43.0863 177.0015 91° East 557 641 39,000  Level FlightAware
Thu 08:55:00 AM 43.0827 177.2159 91° East 557 641 39,000  Level FlightAware
Thu 08:56:00 AM 43.0787 177.4303 92° East 557 641 39,000  Level FlightAware
Thu 08:57:00 AM 43.0744 177.6447 92° East 557 641 39,000  Level FlightAware
Thu 08:58:00 AM 43.0696 177.8590 92° East 557 641 39,000  Level FlightAware
Thu 08:59:00 AM 43.0644 178.0733 92° East 557 641 39,000  Level FlightAware
Thu 09:00:00 AM 43.0589 178.2876 92° East 557 641 39,000  Level FlightAware
Thu 09:00:53 AM 43.0500 178.4833 92° East 575 662 39,000  Level Oakland Oceanic
Thu 09:01:00 AM 43.0529 178.5018 92° East 557 641 39,000  Level FlightAware
Thu 09:02:00 AM 43.0466 178.7160 92° East 557 641 39,000  Level FlightAware
Thu 09:03:00 AM 43.0398 178.9301 93° East 557 641 39,000  Level FlightAware
Thu 09:04:00 AM 43.0326 179.1442 93° East 557 641 39,000  Level FlightAware
Thu 09:05:00 AM 43.0251 179.3582 93° East 557 641 39,000  Level FlightAware
Thu 09:06:00 AM 43.0171 179.5722 93° East 557 641 39,000  Level FlightAware
Thu 09:07:00 AM 43.0084 179.7835 93° East 575 662 39,000  Level FlightAware
Thu 09:07:55 AM 43.0000 180.0000 94° East 590 679 39,000  Level Oakland Oceanic
Thu 09:08:00 AM 43.0000 -180.0000 94° East 575 662 39,000  Level FlightAware
Thu 09:09:00 AM 42.9876 -179.7796 94° East 575 662 39,000  Level FlightAware
Thu 09:10:00 AM 42.9748 -179.5594 95° East 575 662 39,000  Level FlightAware
Thu 09:11:00 AM 42.9616 -179.3392 95° East 575 662 39,000  Level FlightAware
Thu 09:12:00 AM 42.9479 -179.1192 95° East 575 662 39,000  Level FlightAware
Thu 09:13:00 AM 42.9338 -178.8992 95° East 575 662 39,000  Level FlightAware
Thu 09:14:00 AM 42.9174 -178.6500 95° East 590 679 39,000  Level FlightAware
Thu 09:14:46 AM 42.9000 -178.4667 95° East 609 701 39,000  Level Oakland Oceanic
Thu 09:15:00 AM 42.9020 -178.4254 95° East 590 679 39,000  Level FlightAware
Thu 09:16:00 AM 42.8863 -178.2009 96° East 590 679 39,000  Level FlightAware
Thu 09:17:00 AM 42.8701 -177.9765 96° East 590 679 39,000  Level FlightAware
Thu 09:18:00 AM 42.8535 -177.7522 96° East 590 679 39,000  Level FlightAware
Thu 09:19:00 AM 42.8364 -177.5280 96° East 590 679 39,000  Level FlightAware
Thu 09:20:00 AM 42.8189 -177.3040 96° East 590 679 39,000  Level FlightAware
Thu 09:21:00 AM 42.7967 -177.0783 96° East 609 701 39,000  Level FlightAware
Thu 09:22:00 AM 42.7779 -176.8474 96° East 609 701 39,000  Level FlightAware
Thu 09:23:00 AM 42.7585 -176.6166 97° East 609 701 39,000  Level FlightAware
Thu 09:24:00 AM 42.7388 -176.3860 97° East 609 701 39,000  Level FlightAware
Thu 09:25:00 AM 42.7185 -176.1555 97° East 609 701 39,000  Level FlightAware
Thu 09:26:00 AM 42.6978 -175.9252 97° East 609 701 39,000  Level FlightAware
Thu 09:27:00 AM 42.6767 -175.6950 97° East 609 701 39,000  Level FlightAware
Thu 09:28:00 AM 42.6551 -175.4650 97° East 609 701 39,000  Level FlightAware
Thu 09:28:45 AM 42.6333 -175.2500 97° East 625 719 39,000  Level Oakland Oceanic
Thu 09:29:00 AM 42.6330 -175.2351 98° East 609 701 39,000  Level FlightAware
Thu 09:30:00 AM 42.6105 -175.0054 98° East 609 701 39,000  Level FlightAware
Thu 09:31:00 AM 42.5874 -174.7759 98° East 609 701 39,000  Level FlightAware
Thu 09:32:00 AM 42.5640 -174.5466 98° East 609 701 39,000  Level FlightAware
Thu 09:33:00 AM 42.5401 -174.3174 98° East 609 701 39,000  Level FlightAware
Thu 09:34:00 AM 42.5157 -174.0884 98° East 609 701 39,000  Level FlightAware
Thu 09:35:00 AM 42.4660 -173.6412 99° East 625 719 39,000  Level FlightAware
Thu 09:36:00 AM 42.4403 -173.4121 99° East 625 719 39,000  Level FlightAware
Thu 09:37:00 AM 42.4141 -173.1832 99° East 625 719 39,000  Level FlightAware
Thu 09:38:00 AM 42.3874 -172.9545 99° East 625 719 39,000  Level FlightAware
Thu 09:39:00 AM 42.3603 -172.7260 99° East 625 719 39,000  Level FlightAware
Thu 09:40:00 AM 42.3328 -172.4976 99° East 625 719 39,000  Level FlightAware
Thu 09:41:00 AM 42.3048 -172.2695 100° East 625 719 39,000  Level FlightAware
Thu 09:42:00 AM 42.2763 -172.0416 100° East 625 719 39,000  Level FlightAware
Thu 09:42:31 AM 42.2833 -172.0333 100° East 610 702 39,000  Level Oakland Oceanic
Thu 09:43:00 AM 42.2474 -171.8139 100° East 625 719 39,000  Level FlightAware
Thu 09:44:00 AM 42.2180 -171.5864 100° East 625 719 39,000  Level FlightAware
Thu 09:45:00 AM 42.1882 -171.3591 100° East 625 719 39,000  Level FlightAware
Thu 09:46:00 AM 42.1580 -171.1320 100° East 625 719 39,000  Level FlightAware
Thu 09:47:00 AM 42.1273 -170.9052 100° East 625 719 39,000  Level FlightAware
Thu 09:48:00 AM 42.0984 -170.6757 101° East 610 702 39,000  Level FlightAware
Thu 09:49:00 AM 42.0661 -170.4503 101° East 610 702 39,000  Level FlightAware
Thu 09:50:00 AM 42.0332 -170.2250 101° East 610 702 39,000  Level FlightAware
Thu 09:51:00 AM 42.0000 -170.0000 87° East 610 702 39,000  Level FlightAware
Thu 09:51:48 AM 42.0000 -170.0000 87° East 573 659 39,000  Level Oakland Oceanic
Thu 09:52:00 AM 42.0089 -169.7921 87° East 610 702 39,000  Level FlightAware
Thu 09:53:00 AM 42.0173 -169.5842 87° East 610 702 39,000  Level FlightAware
Thu 09:54:00 AM 42.0254 -169.3762 87° East 610 702 39,000  Level FlightAware
Thu 09:55:00 AM 42.0332 -169.1681 87° East 610 702 39,000  Level FlightAware
Thu 09:56:00 AM 42.0405 -168.9600 87° East 610 702 39,000  Level FlightAware
Thu 09:56:21 AM 42.0333 -169.0167 87° East 563 648 39,000  Level Oakland Oceanic
Thu 09:57:00 AM 42.0475 -168.7519 87° East 610 702 39,000  Level FlightAware
Thu 09:58:00 AM 42.0493 -168.6976 88° East 573 659 39,000  Level FlightAware
Thu 09:59:00 AM 42.0560 -168.4803 88° East 573 659 39,000  Level FlightAware
Thu 10:00:00 AM 42.0624 -168.2630 88° East 573 659 39,000  Level FlightAware
Thu 10:01:00 AM 42.0684 -168.0457 88° East 573 659 39,000  Level FlightAware
Thu 10:02:00 AM 42.0711 -167.7594 88° East 563 648 39,000  Level FlightAware
Thu 10:03:00 AM 42.0760 -167.5497 88° East 563 648 39,000  Level FlightAware
Thu 10:04:00 AM 42.0806 -167.3400 88° East 563 648 39,000  Level FlightAware
Thu 10:05:00 AM 42.0848 -167.1303 89° East 563 648 39,000  Level FlightAware
Thu 10:06:00 AM 42.0886 -166.9205 89° East 563 648 39,000  Level FlightAware
Thu 10:07:00 AM 42.0920 -166.7107 89° East 563 648 39,000  Level FlightAware
Thu 10:08:00 AM 42.0951 -166.5009 89° East 563 648 39,000  Level FlightAware
Thu 10:09:00 AM 42.0978 -166.2911 89° East 563 648 39,000  Level FlightAware
Thu 10:10:00 AM 42.1000 -166.0813 89° East 563 648 39,000  Level FlightAware
Thu 10:10:13 AM 42.1000 -166.1000 89° East 554 638 39,000  Level Oakland Oceanic
Thu 10:11:00 AM 42.1020 -165.8714 89° East 563 648 39,000  Level FlightAware
Thu 10:12:00 AM 42.1035 -165.6615 90° East 563 648 39,000  Level FlightAware
Thu 10:13:00 AM 42.1046 -165.4516 90° East 563 648 39,000  Level FlightAware
Thu 10:14:00 AM 42.1054 -165.2418 90° East 563 648 39,000  Level FlightAware
Thu 10:15:00 AM 42.1057 -165.0319 90° East 563 648 39,000  Level FlightAware
Thu 10:16:00 AM 42.1059 -164.8790 90° East 554 638 39,000  Level FlightAware
Thu 10:17:00 AM 42.1056 -164.6754 90° East 554 638 39,000  Level FlightAware
Thu 10:18:00 AM 42.1049 -164.4719 90° East 554 638 39,000  Level FlightAware
Thu 10:19:00 AM 42.1040 -164.2684 90° East 554 638 39,000  Level FlightAware
Thu 10:20:00 AM 42.1026 -164.0649 91° East 554 638 39,000  Level FlightAware
Thu 10:21:00 AM 42.1009 -163.8614 91° East 554 638 39,000  Level FlightAware
Thu 10:22:00 AM 42.0988 -163.6579 91° East 554 638 39,000  Level FlightAware
Thu 10:23:00 AM 42.0964 -163.4545 91° East 554 638 39,000  Level FlightAware
Thu 10:24:00 AM 42.0936 -163.2510 91° East 554 638 39,000  Level FlightAware
Thu 10:24:05 AM 42.1000 -163.2333 91° East 558 642 39,000  Level Oakland Oceanic
Thu 10:25:00 AM 42.0904 -163.0476 91° East 554 638 39,000  Level FlightAware
Thu 10:26:00 AM 42.0869 -162.8442 91° East 554 638 39,000  Level FlightAware
Thu 10:27:00 AM 42.0830 -162.6408 92° East 554 638 39,000  Level FlightAware
Thu 10:28:00 AM 42.0788 -162.4375 92° East 554 638 39,000  Level FlightAware
Thu 10:29:00 AM 42.0742 -162.2341 92° East 554 638 39,000  Level FlightAware
Thu 10:30:00 AM 42.0709 -161.9388 92° East 558 642 39,000  Level FlightAware
Thu 10:31:00 AM 42.0646 -161.7232 92° East 558 642 39,000  Level FlightAware
Thu 10:32:00 AM 42.0580 -161.5076 92° East 558 642 39,000  Level FlightAware
Thu 10:33:00 AM 42.0509 -161.2921 93° East 558 642 39,000  Level FlightAware
Thu 10:34:00 AM 42.0434 -161.0766 93° East 558 642 39,000  Level FlightAware
Thu 10:35:00 AM 42.0355 -160.8612 93° East 558 642 39,000  Level FlightAware
Thu 10:36:00 AM 42.0273 -160.6458 93° East 558 642 39,000  Level FlightAware
Thu 10:37:00 AM 42.0186 -160.4305 93° East 558 642 39,000  Level FlightAware
Thu 10:37:56 AM 42.0167 -160.3667 93° East 545 627 39,000  Level Oakland Oceanic
Thu 10:38:00 AM 42.0095 -160.2152 93° East 558 642 39,000  Level FlightAware
Thu 10:39:00 AM 42.0000 -160.0000 87° East 558 642 39,000  Level FlightAware
Thu 10:39:52 AM 42.0000 -160.0000 87° East 543 625 39,000  Level Oakland Oceanic
Thu 10:40:00 AM 42.0083 -159.8043 87° East 558 642 39,000  Level FlightAware
Thu 10:41:00 AM 42.0164 -159.6086 87° East 558 642 39,000  Level FlightAware
Thu 10:42:00 AM 42.0240 -159.4129 87° East 558 642 39,000  Level FlightAware
Thu 10:43:00 AM 42.0314 -159.2171 87° East 558 642 39,000  Level FlightAware
Thu 10:44:00 AM 42.0320 -159.2014 87° East 545 627 39,000  Level FlightAware
Thu 10:45:00 AM 42.0391 -159.0016 87° East 545 627 39,000  Level FlightAware
Thu 10:46:00 AM 42.0467 -158.7774 87° East 543 625 39,000  Level FlightAware
Thu 10:47:00 AM 42.0532 -158.5734 88° East 543 625 39,000  Level FlightAware
Thu 10:48:00 AM 42.0593 -158.3694 88° East 543 625 39,000  Level FlightAware
Thu 10:49:00 AM 42.0651 -158.1654 88° East 543 625 39,000  Level FlightAware
Thu 10:50:00 AM 42.0706 -157.9614 88° East 543 625 39,000  Level FlightAware
Thu 10:51:00 AM 42.0756 -157.7573 88° East 543 625 39,000  Level FlightAware
Thu 10:51:49 AM 42.0833 -157.5833 88° East 518 596 39,000  Level Oakland Oceanic
Thu 10:52:00 AM 42.0803 -157.5532 88° East 543 625 39,000  Level FlightAware
Thu 10:53:00 AM 42.0847 -157.3490 88° East 543 625 39,000  Level FlightAware
Thu 10:54:00 AM 42.0887 -157.1449 89° East 543 625 39,000  Level FlightAware
Thu 10:55:00 AM 42.0923 -156.9407 89° East 543 625 39,000  Level FlightAware
Thu 10:56:00 AM 42.0956 -156.7364 89° East 543 625 39,000  Level FlightAware
Thu 10:57:00 AM 42.0984 -156.5322 89° East 543 625 39,000  Level FlightAware
Thu 10:58:00 AM 42.1030 -156.4163 89° East 518 596 39,000  Level FlightAware
Thu 10:59:00 AM 42.1052 -156.2217 89° East 518 596 39,000  Level FlightAware
Thu 11:00:00 AM 42.1070 -156.0271 89° East 518 596 39,000  Level FlightAware
Thu 11:01:00 AM 42.1085 -155.8325 89° East 518 596 39,000  Level FlightAware
Thu 11:02:00 AM 42.1096 -155.6379 90° East 518 596 39,000  Level FlightAware
Thu 11:03:00 AM 42.1104 -155.4433 90° East 518 596 39,000  Level FlightAware
Thu 11:04:00 AM 42.1109 -155.2487 90° East 518 596 39,000  Level FlightAware
Thu 11:05:00 AM 42.1111 -155.0541 90° East 518 596 39,000  Level FlightAware
Thu 11:05:42 AM 42.1167 -154.8167 90° East 538 619 39,000  Level Oakland Oceanic
Thu 11:06:00 AM 42.1109 -154.8595 90° East 518 596 39,000  Level FlightAware
Thu 11:07:00 AM 42.1104 -154.6649 90° East 518 596 39,000  Level FlightAware
Thu 11:08:00 AM 42.1096 -154.4702 90° East 518 596 39,000  Level FlightAware
Thu 11:09:00 AM 42.1084 -154.2756 91° East 518 596 39,000  Level FlightAware
Thu 11:10:00 AM 42.1070 -154.0811 91° East 518 596 39,000  Level FlightAware
Thu 11:11:00 AM 42.1085 -153.7683 91° East 538 619 39,000  Level FlightAware
Thu 11:12:00 AM 42.1057 -153.5587 91° East 538 619 39,000  Level FlightAware
Thu 11:13:00 AM 42.1025 -153.3491 91° East 538 619 39,000  Level FlightAware
Thu 11:14:00 AM 42.0989 -153.1395 91° East 538 619 39,000  Level FlightAware
Thu 11:15:00 AM 42.0950 -152.9299 92° East 538 619 39,000  Level FlightAware
Thu 11:16:00 AM 42.0907 -152.7204 92° East 538 619 39,000  Level FlightAware
Thu 11:17:00 AM 42.0860 -152.5109 92° East 538 619 39,000  Level FlightAware
Thu 11:18:00 AM 42.0809 -152.3014 92° East 538 619 39,000  Level FlightAware
Thu 11:19:00 AM 42.0755 -152.0919 92° East 538 619 39,000  Level FlightAware
Thu 11:19:32 AM 42.0667 -152.0833 92° East 525 604 39,000  Level Oakland Oceanic
Thu 11:20:00 AM 42.0696 -151.8825 92° East 538 619 39,000  Level FlightAware
Thu 11:21:00 AM 42.0634 -151.6732 92° East 538 619 39,000  Level FlightAware
Thu 11:22:00 AM 42.0568 -151.4639 93° East 538 619 39,000  Level FlightAware
Thu 11:23:00 AM 42.0498 -151.2546 93° East 538 619 39,000  Level FlightAware
Thu 11:24:00 AM 42.0425 -151.0453 93° East 538 619 39,000  Level FlightAware
Thu 11:25:00 AM 42.0350 -150.9464 93° East 525 604 39,000  Level FlightAware
Thu 11:26:00 AM 42.0286 -150.7571 93° East 525 604 39,000  Level FlightAware
Thu 11:27:00 AM 42.0219 -150.5677 93° East 525 604 39,000  Level FlightAware
Thu 11:28:00 AM 42.0149 -150.3784 93° East 525 604 39,000  Level FlightAware
Thu 11:29:00 AM 42.0076 -150.1892 93° East 525 604 39,000  Level FlightAware
Thu 11:30:00 AM 42.0000 -150.0000 94° East 525 604 39,000  Level FlightAware
Thu 11:30:30 AM 42.0000 -150.0000 94° East 520 598 39,000  Level Oakland Oceanic
Thu 11:31:00 AM 41.9890 -149.8052 94° East 525 604 39,000  Level FlightAware
Thu 11:32:00 AM 41.9777 -149.6104 95° East 525 604 39,000  Level FlightAware
Thu 11:33:00 AM 41.9661 -149.4157 95° East 525 604 39,000  Level FlightAware
Thu 11:33:25 AM 41.9667 -149.4333 95° East 521 600 39,000  Level Oakland Oceanic
Thu 11:34:00 AM 41.9541 -149.2211 95° East 525 604 39,000  Level FlightAware
Thu 11:35:00 AM 41.9418 -149.0265 95° East 525 604 39,000  Level FlightAware
Thu 11:36:00 AM 41.9307 -148.8540 95° East 520 598 39,000  Level FlightAware
Thu 11:37:00 AM 41.9180 -148.6633 95° East 520 598 39,000  Level FlightAware
Thu 11:38:00 AM 41.9050 -148.4726 95° East 520 598 39,000  Level FlightAware
Thu 11:39:00 AM 41.8917 -148.2879 95° East 521 600 39,000  Level FlightAware
Thu 11:40:00 AM 41.8781 -148.0972 96° East 521 600 39,000  Level FlightAware
Thu 11:41:00 AM 41.8642 -147.9067 96° East 521 600 39,000  Level FlightAware
Thu 11:42:00 AM 41.8500 -147.7162 96° East 521 600 39,000  Level FlightAware
Thu 11:43:00 AM 41.8354 -147.5258 96° East 521 600 39,000  Level FlightAware
Thu 11:44:00 AM 41.8206 -147.3355 96° East 521 600 39,000  Level FlightAware
Thu 11:45:00 AM 41.8054 -147.1453 96° East 521 600 39,000  Level FlightAware
Thu 11:46:00 AM 41.7899 -146.9552 96° East 521 600 39,000  Level FlightAware
Thu 11:47:00 AM 41.7741 -146.7651 96° East 521 600 39,000  Level FlightAware
Thu 11:47:17 AM 41.7833 -146.7833 96° East 517 595 39,000  Level Oakland Oceanic
Thu 11:48:00 AM 41.7580 -146.5752 97° East 521 600 39,000  Level FlightAware
Thu 11:49:00 AM 41.7416 -146.3853 97° East 521 600 39,000  Level FlightAware
Thu 11:50:00 AM 41.7249 -146.1956 97° East 521 600 39,000  Level FlightAware
Thu 11:51:00 AM 41.7078 -146.0060 97° East 521 600 39,000  Level FlightAware
Thu 11:52:00 AM 41.6905 -145.8164 97° East 521 600 39,000  Level FlightAware
Thu 11:53:00 AM 41.6806 -145.6420 97° East 517 595 39,000  Level FlightAware
Thu 11:54:00 AM 41.6624 -145.4521 97° East 517 595 39,000  Level FlightAware
Thu 11:55:00 AM 41.6439 -145.2624 98° East 517 595 39,000  Level FlightAware
Thu 11:56:00 AM 41.6250 -145.0728 98° East 517 595 39,000  Level FlightAware
Thu 11:57:00 AM 41.6059 -144.8832 98° East 517 595 39,000  Level FlightAware
Thu 11:58:00 AM 41.5864 -144.6938 98° East 517 595 39,000  Level FlightAware
Thu 11:59:00 AM 41.5666 -144.5045 98° East 517 595 39,000  Level FlightAware
Thu 12:00:00 PM 41.5466 -144.3153 98° East 517 595 39,000  Level FlightAware
Thu 12:01:00 PM 41.5262 -144.1263 98° East 517 595 39,000  Level FlightAware
Thu 12:01:09 PM 41.5333 -144.1667 98° East 524 603 39,000  Level Oakland Oceanic
Thu 12:02:00 PM 41.5055 -143.9373 98° East 517 595 39,000  Level FlightAware
Thu 12:03:00 PM 41.4845 -143.7485 99° East 517 595 39,000  Level FlightAware
Thu 12:04:00 PM 41.4631 -143.5598 99° East 517 595 39,000  Level FlightAware
Thu 12:05:00 PM 41.4415 -143.3712 99° East 517 595 39,000  Level FlightAware
Thu 12:06:00 PM 41.4196 -143.1828 99° East 517 595 39,000  Level FlightAware
Thu 12:07:00 PM 41.4028 -143.0237 99° East 524 603 39,000  Level FlightAware
Thu 12:08:00 PM 41.3800 -142.8336 99° East 524 603 39,000  Level FlightAware
Thu 12:09:00 PM 41.3568 -142.6437 99° East 524 603 39,000  Level FlightAware
Thu 12:10:00 PM 41.3333 -142.4539 99° East 524 603 39,000  Level FlightAware
Thu 12:11:00 PM 41.3096 -142.2643 100° East 524 603 39,000  Level FlightAware
Thu 12:12:00 PM 41.2854 -142.0748 100° East 524 603 39,000  Level FlightAware
Thu 12:13:00 PM 41.2610 -141.8855 100° East 524 603 39,000  Level FlightAware
Thu 12:14:00 PM 41.2363 -141.6962 100° East 524 603 39,000  Level FlightAware
Thu 12:15:00 PM 41.2113 -141.5072 100° East 524 603 39,000  Level FlightAware
Thu 12:15:01 PM 41.2000 -141.5000 100° East 532 612 39,000  Level Oakland Oceanic
Thu 12:16:00 PM 41.1860 -141.3183 100° East 524 603 39,000  Level FlightAware
Thu 12:17:00 PM 41.1603 -141.1295 100° East 524 603 39,000  Level FlightAware
Thu 12:18:00 PM 41.1344 -140.9409 100° East 524 603 39,000  Level FlightAware
Thu 12:19:00 PM 41.1081 -140.7524 101° East 524 603 39,000  Level FlightAware
Thu 12:20:00 PM 41.0815 -140.5641 101° East 524 603 39,000  Level FlightAware
Thu 12:21:00 PM 41.0518 -140.3741 100° East 532 612 39,000  Level FlightAware
Thu 12:22:00 PM 41.0261 -140.1870 100° East 532 612 39,000  Level FlightAware
Thu 12:22:54 PM 41.0000 -140.0000 101° East 533 613 39,000  Level Oakland Oceanic
Thu 12:23:00 PM 41.0000 -140.0000 101° East 532 612 39,000  Level FlightAware
Thu 12:24:00 PM 40.9704 -139.8062 102° East 532 612 39,000  Level FlightAware
Thu 12:25:00 PM 40.9404 -139.6125 102° East 532 612 39,000  Level FlightAware
Thu 12:26:00 PM 40.9102 -139.4190 102° East 532 612 39,000  Level FlightAware
Thu 12:27:00 PM 40.8796 -139.2257 102° East 532 612 39,000  Level FlightAware
Thu 12:28:00 PM 40.8487 -139.0326 102° East 532 612 39,000  Level FlightAware
Thu 12:28:53 PM 40.8167 -138.8500 102° East 536 617 39,000  Level Oakland Oceanic
Thu 12:29:00 PM 40.8175 -138.8397 102° East 533 613 39,000  Level FlightAware
Thu 12:30:00 PM 40.7859 -138.6469 102° East 533 613 39,000  Level FlightAware
Thu 12:31:00 PM 40.7541 -138.4543 102° East 533 613 39,000  Level FlightAware
Thu 12:32:00 PM 40.7219 -138.2619 103° East 533 613 39,000  Level FlightAware
Thu 12:33:00 PM 40.6894 -138.0697 103° East 533 613 39,000  Level FlightAware
Thu 12:34:00 PM 40.6566 -137.8777 103° East 533 613 39,000  Level FlightAware
Thu 12:35:00 PM 40.6228 -137.6949 103° East 536 617 39,000  Level FlightAware
Thu 12:36:00 PM 40.5894 -137.5030 103° East 536 617 39,000  Level FlightAware
Thu 12:37:00 PM 40.5556 -137.3114 103° East 536 617 39,000  Level FlightAware
Thu 12:38:00 PM 40.5215 -137.1199 103° East 536 617 39,000  Level FlightAware
Thu 12:39:00 PM 40.4872 -136.9286 103° East 536 617 39,000  Level FlightAware
Thu 12:40:00 PM 40.4525 -136.7375 103° East 536 617 39,000  Level FlightAware
Thu 12:41:00 PM 40.4175 -136.5467 104° East 536 617 39,000  Level FlightAware
Thu 12:42:00 PM 40.3821 -136.3560 104° East 536 617 39,000  Level FlightAware
Thu 12:42:45 PM 40.3500 -136.2167 104° East 537 618 39,000  Level Oakland Oceanic
Thu 12:43:00 PM 40.3465 -136.1655 104° East 536 617 39,000  Level FlightAware
Thu 12:44:00 PM 40.3106 -135.9752 104° East 536 617 39,000  Level FlightAware
Thu 12:45:00 PM 40.2743 -135.7852 104° East 536 617 39,000  Level FlightAware
Thu 12:46:00 PM 40.2377 -135.5953 104° East 536 617 39,000  Level FlightAware
Thu 12:47:00 PM 40.2009 -135.4056 104° East 536 617 39,000  Level FlightAware
Thu 12:48:00 PM 40.1637 -135.2162 104° East 536 617 39,000  Level FlightAware
Thu 12:49:00 PM 40.1294 -135.0686 104° East 537 618 39,000  Level FlightAware
Thu 12:50:00 PM 40.0916 -134.8780 105° East 537 618 39,000  Level FlightAware
Thu 12:51:00 PM 40.0534 -134.6876 105° East 537 618 39,000  Level FlightAware
Thu 12:52:00 PM 40.0149 -134.4974 105° East 537 618 39,000  Level FlightAware
Thu 12:53:00 PM 39.9761 -134.3074 105° East 537 618 39,000  Level FlightAware
Thu 12:54:00 PM 39.9370 -134.1177 105° East 537 618 39,000  Level FlightAware
Thu 12:55:00 PM 39.8976 -133.9281 105° East 537 618 39,000  Level FlightAware
Thu 12:56:00 PM 39.8579 -133.7388 105° East 537 618 39,000  Level FlightAware
Thu 12:56:38 PM 39.8333 -133.6000 106° East 539 620 39,000  Level Oakland Oceanic
Thu 12:57:00 PM 39.8179 -133.5497 105° East 537 618 39,000  Level FlightAware
Thu 12:58:00 PM 39.7775 -133.3608 106° East 537 618 39,000  Level FlightAware
Thu 12:59:00 PM 39.7369 -133.1722 106° East 537 618 39,000  Level FlightAware
Thu 01:00:00 PM 39.6959 -132.9837 106° East 537 618 39,000  Level FlightAware
Thu 01:01:00 PM 39.6547 -132.7955 106° East 537 618 39,000  Level FlightAware
Thu 01:02:00 PM 39.6131 -132.6075 106° East 537 618 39,000  Level FlightAware
Thu 01:03:00 PM 39.5543 -132.3302 106° East 539 620 39,000  Level FlightAware
Thu 01:04:00 PM 39.5133 -132.1497 106° East 539 620 39,000  Level FlightAware
Thu 01:05:00 PM 39.4721 -131.9694 107° East 539 620 39,000  Level FlightAware
Thu 01:06:00 PM 39.4305 -131.7892 107° East 539 620 39,000  Level FlightAware
Thu 01:07:00 PM 39.3887 -131.6093 107° East 539 620 39,000  Level FlightAware
Thu 01:08:00 PM 39.3466 -131.4296 107° East 539 620 39,000  Level FlightAware
Thu 01:09:00 PM 39.3043 -131.2502 107° East 539 620 39,000  Level FlightAware
Thu 01:10:00 PM 39.2616 -131.0709 107° East 539 620 39,000  Level FlightAware
Thu 01:10:29 PM 39.2500 -131.0167 107° East 541 623 39,000  Level Oakland Oceanic
Thu 01:11:00 PM 39.2187 -130.8919 107° East 539 620 39,000  Level FlightAware
Thu 01:12:00 PM 39.1755 -130.7131 107° East 539 620 39,000  Level FlightAware
Thu 01:13:00 PM 39.1320 -130.5345 107° East 539 620 39,000  Level FlightAware
Thu 01:14:00 PM 39.0883 -130.3561 108° East 539 620 39,000  Level FlightAware
Thu 01:15:00 PM 39.0443 -130.1779 108° East 539 620 39,000  Level FlightAware
Thu 01:16:00 PM 39.0000 -130.0000 102° East 541 623 39,000  Level FlightAware
Thu 01:16:05 PM 39.0000 -130.0000 102° East 540 621 39,000  Level Oakland Oceanic
Thu 01:17:00 PM 38.9689 -129.8112 102° East 541 623 39,000  Level FlightAware
Thu 01:18:00 PM 38.9375 -129.6226 102° East 541 623 39,000  Level FlightAware
Thu 01:19:00 PM 38.9059 -129.4341 102° East 541 623 39,000  Level FlightAware
Thu 01:20:00 PM 38.8739 -129.2458 102° East 541 623 39,000  Level FlightAware
Thu 01:21:00 PM 38.8416 -129.0577 102° East 541 623 39,000  Level FlightAware
Thu 01:22:00 PM 38.8090 -128.8698 103° East 540 621 39,000  Level FlightAware
Thu 01:23:00 PM 38.7761 -128.6820 103° East 540 621 39,000  Level FlightAware
Thu 01:24:00 PM 38.7429 -128.4944 103° East 540 621 39,000  Level FlightAware
Thu 01:24:19 PM 38.7333 -128.4333 103° East 545 627 39,000  Level Oakland Oceanic
Thu 01:25:00 PM 38.7094 -128.3070 103° East 540 621 39,000  Level FlightAware
Thu 01:26:00 PM 38.6756 -128.1197 103° East 540 621 39,000  Level FlightAware
Thu 01:27:00 PM 38.6415 -127.9326 103° East 540 621 39,000  Level FlightAware
Thu 01:28:00 PM 38.6072 -127.7458 103° East 540 621 39,000  Level FlightAware
Thu 01:29:00 PM 38.5725 -127.5591 103° East 540 621 39,000  Level FlightAware
Thu 01:29:19 PM 38.5456 -127.5175 111° Southeast 543 625 39,000  Level Oakland Center
Thu 01:30:00 PM 38.5350 -127.3573 104° East 545 627 39,000  Level FlightAware
Thu 01:30:20 PM 38.5094 -127.3325 104° East 540 621 39,000  Level Oakland Center
Thu 01:31:00 PM 38.5009 -127.1786 104° East 545 627 39,000 -97 Level FlightAware
Thu 01:31:22 PM 38.4681 -127.1081 103° East 542 624 38,900  Descending Oakland Center
Thu 01:32:00 PM 38.4667 -127.0000 111° Southeast 545 627 39,000 61 Climbing FlightAware
Thu 01:33:00 PM 38.4094 -126.8114 111° Southeast 545 627 39,000  Level FlightAware
Thu 01:34:00 PM 38.3518 -126.6232 111° Southeast 545 627 39,000  Level FlightAware
Thu 01:36:40 PM 38.1550 -126.1690 103° East 545 627 39,000  Level FlightAware
Thu 01:37:14 PM 38.1190 -126.0710 115° Southeast 543 625 39,000  Level FlightAware
Thu 01:37:52 PM 38.0780 -125.9610 115° Southeast 543 625 39,000  Level FlightAware
Thu 01:38:24 PM 38.0440 -125.8690 115° Southeast 543 625 39,000  Level FlightAware
Thu 01:39:00 PM 38.0050 -125.7650 115° Southeast 541 623 39,000  Level FlightAware
Thu 01:39:34 PM 37.9690 -125.6700 116° Southeast 541 623 39,000  Level FlightAware
Thu 01:40:12 PM 37.9280 -125.5610 115° Southeast 542 624 39,000  Level FlightAware
Thu 01:40:44 PM 37.8930 -125.4690 116° Southeast 543 625 39,000  Level FlightAware
Thu 01:41:22 PM 37.8520 -125.3590 115° Southeast 542 624 39,000  Level FlightAware
Thu 01:41:54 PM 37.8180 -125.2680 115° Southeast 544 626 39,000  Level FlightAware
Thu 01:42:29 PM 37.7810 -125.1710 116° Southeast 543 625 39,000  Level FlightAware
Thu 01:43:07 PM 37.7400 -125.0630 116° Southeast 540 621 39,000  Level FlightAware
Thu 01:43:36 PM 37.7070 -124.9750 115° Southeast 539 620 39,000  Level FlightAware
Thu 01:44:16 PM 37.6640 -124.8630 116° Southeast 538 619 39,000  Level FlightAware
Thu 01:44:50 PM 37.6280 -124.7690 116° Southeast 539 620 39,000  Level FlightAware
Thu 01:45:34 PM 37.5800 -124.6440 116° Southeast 540 621 39,000  Level FlightAware
Thu 01:46:06 PM 37.5450 -124.5520 116° Southeast 538 619 39,000  Level FlightAware
Thu 01:46:40 PM 37.5100 -124.4610 116° Southeast 535 616 39,000  Level FlightAware
Thu 01:47:18 PM 37.4670 -124.3510 116° Southeast 534 615 39,000  Level FlightAware
Thu 01:47:51 PM 37.4320 -124.2610 116° Southeast 536 617 39,000  Level FlightAware
Thu 01:48:28 PM 37.3910 -124.1570 116° Southeast 534 615 39,000  Level FlightAware
Thu 01:49:01 PM 37.3560 -124.0680 116° Southeast 534 615 39,000  Level FlightAware
Thu 01:49:39 PM 37.3160 -123.9650 116° Southeast 534 615 39,000  Level FlightAware
Thu 01:50:10 PM 37.2800 -123.8740 116° Southeast 533 613 39,000  Level FlightAware
Thu 01:50:48 PM 37.2390 -123.7700 116° Southeast 534 615 39,000  Level FlightAware
Thu 01:51:23 PM 37.2010 -123.6750 117° Southeast 533 613 39,000  Level FlightAware
Thu 01:51:58 PM 37.1610 -123.5740 116° Southeast 531 611 39,000  Level FlightAware
Thu 01:52:30 PM 37.1260 -123.4860 116° Southeast 528 608 39,000  Level FlightAware
Thu 01:53:08 PM 37.0860 -123.3850 116° Southeast 526 605 39,000  Level FlightAware
Thu 01:53:39 PM 37.0520 -123.2990 116° Southeast 525 604 39,000  Level FlightAware
Thu 01:54:24 PM 37.0030 -123.1780 117° Southeast 521 600 39,000  Level FlightAware
Thu 01:55:00 PM 36.9630 -123.0790 117° Southeast 523 602 39,000  Level FlightAware
Thu 01:55:36 PM 36.9250 -122.9860 117° Southeast 522 601 39,000  Level FlightAware
Thu 01:56:08 PM 36.8900 -122.8990 117° Southeast 519 597 39,000  Level FlightAware
Thu 01:56:22 PM 36.8735 -122.8590 117° Southeast 520 598 39,000  Level FlightAware
Thu 01:56:59 PM 36.8329 -122.7600 117° Southeast 518 596 39,000  Level FlightAware
Thu 01:57:34 PM 36.7949 -122.6670 117° Southeast 518 596 39,000  Level FlightAware
Thu 01:58:30 PM 36.7340 -122.5190 117° Southeast 520 598 39,000  Level FlightAware
Thu 01:58:57 PM 36.7052 -122.4480 117° Southeast 520 598 39,000  Level FlightAware
Thu 01:59:28 PM 36.6708 -122.3650 117° Southeast 507 583 39,000  Level FlightAware
Thu 02:00:12 PM 36.6250 -122.2540 117° Southeast 493 567 39,000  Level FlightAware
Thu 02:00:23 PM 36.6129 -122.2250 117° Southeast 492 566 39,000  Level FlightAware
Thu 02:01:02 PM 36.5728 -122.1290 117° Southeast 488 562 39,000  Level FlightAware
Thu 02:01:56 PM 36.5190 -121.9990 117° Southeast 487 560 39,000  Level FlightAware
Thu 02:02:34 PM 36.4800 -121.9080 118° Southeast 485 558 39,000  Level FlightAware
Thu 02:03:10 PM 36.4420 -121.8150 117° Southeast 485 558 39,000  Level FlightAware
Thu 02:03:42 PM 36.4090 -121.7380 118° Southeast 483 556 39,000  Level FlightAware
Thu 02:04:27 PM 36.3610 -121.6250 118° Southeast 479 551 39,000  Level FlightAware
Thu 02:05:00 PM 36.3290 -121.5430 116° Southeast 481 554 39,000  Level FlightAware
Thu 02:05:23 PM 36.3170 -121.4840 104° East 487 560 39,000  Level FlightAware
Thu 02:05:59 PM 36.3130 -121.3830 93° East 491 565 39,000  Level FlightAware
Thu 02:06:39 PM 36.3100 -121.2700 92° East 491 565 39,000  Level FlightAware
Thu 02:07:14 PM 36.3070 -121.1730 92° East 490 564 39,000  Level FlightAware
Thu 02:07:51 PM 36.3050 -121.0710 91° East 491 565 39,000  Level FlightAware
Thu 02:08:21 PM 36.3030 -120.9890 92° East 489 563 39,000  Level FlightAware
Thu 02:08:58 PM 36.3010 -120.8820 91° East 486 559 39,000  Level FlightAware
Thu 02:09:34 PM 36.3000 -120.7820 91° East 485 558 39,000  Level FlightAware
Thu 02:10:14 PM 36.2980 -120.6760 91° East 484 557 39,000  Level FlightAware
Thu 02:10:32 PM 36.2910 -120.6200 99° East 478 550 39,000  Level FlightAware
Thu 02:10:44 PM 36.2810 -120.5920 114° Southeast 472 543 39,000  Level FlightAware
Thu 02:10:56 PM 36.2670 -120.5650 123° Southeast 468 539 39,000  Level FlightAware
Thu 02:11:46 PM 36.1860 -120.4820 140° Southeast 458 527 39,000  Level FlightAware
Thu 02:12:24 PM 36.1240 -120.4230 142° Southeast 457 526 39,000  Level FlightAware
Thu 02:13:03 PM 36.0540 -120.3580 143° Southeast 453 521 39,000  Level FlightAware
Thu 02:13:40 PM 35.9920 -120.3000 143° Southeast 454 522 39,000  Level FlightAware
Thu 02:14:11 PM 35.9410 -120.2520 143° Southeast 454 522 39,000  Level FlightAware
Thu 02:14:47 PM 35.8800 -120.1950 143° Southeast 454 522 39,000  Level FlightAware
Thu 02:15:20 PM 35.8250 -120.1440 143° Southeast 450 518 39,000  Level FlightAware
Thu 02:15:57 PM 35.7640 -120.0870 143° Southeast 451 519 39,000  Level FlightAware
Thu 02:16:33 PM 35.7040 -120.0320 143° Southeast 451 519 39,000  Level FlightAware
Thu 02:17:10 PM 35.6420 -119.9740 143° Southeast 450 518 39,000  Level FlightAware
Thu 02:17:36 PM 35.5970 -119.9350 145° Southeast 449 517 39,000 -90 Level FlightAware
Thu 02:18:17 PM 35.5310 -119.8780 145° Southeast 448 516 38,900 -868 Descending FlightAware
Thu 02:18:52 PM 35.4690 -119.8250 145° Southeast 450 518 37,900 -2,261 Descending FlightAware
Thu 02:19:26 PM 35.4100 -119.7740 145° Southeast 456 525 36,300 -3,042 Descending FlightAware
Thu 02:20:03 PM 35.3500 -119.7230 145° Southeast 468 539 34,300 -2,877 Descending FlightAware
Thu 02:20:39 PM 35.2830 -119.6650 145° Southeast 461 531 32,800 -2,667 Descending FlightAware
Thu 02:21:15 PM 35.2200 -119.6110 145° Southeast 457 526 31,100 -2,507 Descending FlightAware
Thu 02:21:46 PM 35.1690 -119.5670 145° Southeast 453 521 30,000 -2,118 Descending FlightAware
Thu 02:22:23 PM 35.1060 -119.5130 145° Southeast 443 510 28,700 -1,326 Descending FlightAware
Thu 02:23:12 PM 35.0330 -119.4490 144° Southeast 439 505 28,100 -1,778 Descending FlightAware
Thu 02:23:44 PM 34.9720 -119.3990 146° Southeast 429 494 26,300 -1,826 Descending FlightAware
Thu 02:24:21 PM 34.9170 -119.3530 146° Southeast 425 489 26,000 -250 Descending FlightAware
Thu 02:24:56 PM 34.8700 -119.3120 144° Southeast 425 489 26,000 -2,314 Level FlightAware
Thu 02:25:31 PM 34.8010 -119.2540 145° Southeast 402 463 23,300 -3,000 Descending FlightAware
Thu 02:26:08 PM 34.7460 -119.2080 145° Southeast 400 460 22,400 -1,606 Descending FlightAware
Thu 02:26:42 PM 34.6930 -119.1630 145° Southeast 425 489 21,400 -1,701 Descending FlightAware
Thu 02:27:15 PM 34.6390 -119.1170 145° Southeast 418 481 20,500 -1,667 Descending FlightAware
Thu 02:27:54 PM 34.5770 -119.0650 145° Southeast 407 468 19,400 -1,690 Descending FlightAware
Thu 02:28:26 PM 34.5280 -119.0250 146° Southeast 398 458 18,500 -1,565 Descending FlightAware
Thu 02:29:03 PM 34.4750 -118.9800 145° Southeast 393 452 17,600 -1,667 Descending FlightAware
Thu 02:29:38 PM 34.4210 -118.9340 145° Southeast 383 441 16,500 -1,701 Descending FlightAware
Thu 02:30:10 PM 34.3750 -118.8970 146° Southeast 372 428 15,700 -1,606 Descending FlightAware
Thu 02:30:49 PM 34.3150 -118.8660 157° South 359 413 14,600 -1,588 Descending FlightAware
Thu 02:31:18 PM 34.2690 -118.8490 163° South 351 404 13,900 -1,588 Descending FlightAware
Thu 02:31:57 PM 34.2110 -118.8280 163° South 345 397 12,800 -1,680 Descending FlightAware
Thu 02:32:33 PM 34.1560 -118.8070 162° South 339 390 11,800 -1,352 Descending FlightAware
Thu 02:33:08 PM 34.1030 -118.7880 163° South 320 368 11,200 -696 Descending FlightAware
Thu 02:33:42 PM 34.0580 -118.7660 158° South 300 345 11,000 -480 Descending FlightAware
Thu 02:33:58 PM 34.0440 -118.7480 133° Southeast 298 343 10,800 -889 Descending FlightAware
Thu 02:34:09 PM 34.0370 -118.7310 116° Southeast 299 344 10,600 -894 Descending FlightAware
Thu 02:34:45 PM 34.0300 -118.6700 98° East 292 336 10,100 -735 Descending FlightAware
Thu 02:34:58 PM 34.0280 -118.6490 97° East 291 335 10,000 -909 Descending FlightAware
Thu 02:35:18 PM 34.0250 -118.6180 97° East 293 337 9,600 -1,227 Descending FlightAware
Thu 02:35:42 PM 34.0220 -118.5790 95° East 289 333 9,100 -1,435 Descending FlightAware
Thu 02:36:04 PM 34.0190 -118.5440 96° East 294 338 8,500 -1,143 Descending FlightAware
Thu 02:36:24 PM 34.0160 -118.5130 97° East 288 331 8,300 -789 Descending FlightAware
Thu 02:36:42 PM 34.0130 -118.4820 97° East 280 322 8,000 -882 Descending FlightAware
Thu 02:36:58 PM 34.0110 -118.4580 96° East 278 320 7,800 -933 Descending FlightAware
Thu 02:37:27 PM 34.0160 -118.4130 82° East 276 318 7,300 -1,050 Descending FlightAware
Thu 02:37:38 PM 34.0180 -118.3960 82° East 276 318 7,100 -1,029 Descending FlightAware
Thu 02:38:02 PM 34.0220 -118.3600 82° East 267 307 6,700 -857 Descending FlightAware
Thu 02:38:20 PM 34.0260 -118.3340 79° East 257 296 6,500 -1,024 Descending FlightAware
Thu 02:38:43 PM 34.0290 -118.3030 83° East 234 269 6,000 -1,333 Descending FlightAware
Thu 02:39:05 PM 34.0320 -118.2770 82° East 209 241 5,500 -1,429 Descending FlightAware
Thu 02:39:25 PM 34.0350 -118.2560 80° East 197 227 5,000 -1,800 Descending FlightAware
Thu 02:39:45 PM 34.0380 -118.2330 81° East 194 223 4,300 -2,000 Descending FlightAware
Thu 02:40:04 PM 34.0400 -118.2130 83° East 192 221 3,700 -2,000 Descending FlightAware
Thu 02:40:27 PM 34.0320 -118.1900 113° Southeast 189 217 2,900 -1,818 Descending FlightAware
Thu 02:40:37 PM 34.0260 -118.1860 151° Southeast 188 216 2,700 -1,714 Descending FlightAware
Thu 02:40:41 PM 34.0220 -118.1850 168° South 185 213 2,500 -968 Descending FlightAware
Thu 02:41:08 PM 34.0030 -118.1940 201° Southwest 170 196 2,200 -409 Descending FlightAware
Thu 02:41:25 PM 33.9940 -118.2000 209° Southwest 168 193 2,200  Level FlightAware
Thu 02:41:28 PM 33.9900 -118.2040 220° Southwest 168 193 2,200  Level FlightAware
Thu 02:41:33 PM 33.9870 -118.2080 228° Southwest 168 193 2,200  Level FlightAware
Thu 02:41:43 PM 33.9830 -118.2150 235° Southwest 168 193 2,200  Level FlightAware
Thu 02:42:06 PM 33.9740 -118.2350 242° Southwest 169 194 2,200  Level FlightAware
Thu 02:42:16 PM 33.9700 -118.2450 244° Southwest 169 194 2,200  Level FlightAware
Thu 02:42:27 PM 33.9680 -118.2540 255° West 169 194 2,200  Level FlightAware
Thu 02:42:42 PM 33.9660 -118.2690 261° West 169 194 2,200 -462 Level FlightAware
Thu 02:43:06 PM 33.9640 -118.2900 263° West 162 186 1,900 -818 Descending FlightAware
Thu 02:43:26 PM 33.9620 -118.3080 262° West 153 176 1,600 -686 Descending FlightAware
Thu 02:43:41 PM 33.9610 -118.3190 264° West 152 175 1,500 -600 Descending FlightAware
Thu 02:44:06 PM 33.9590 -118.3370 262° West 150 173 1,200 -857 Descending FlightAware
Thu 02:44:23 PM 33.9570 -118.3550 262° West 145 167 900 -837 Descending FlightAware
Thu 02:44:49 PM 33.9550 -118.3750 263° West 142 163 600 -625 Descending FlightAware
Thu 02:45:11 PM 33.9530 -118.3900 261° West 149 171 400 -250 Descending FlightAware
Thu 02:45:37 PM 33.9510 -118.4090 263° West 149 171 400 -194 Level FlightAware
Thu 02:46:13 PM 33.9497 -118.4275 263° West 147 169 200 -333 Descending Los Center

Login

Don't have an account? Register now (free) for customized features, flight alerts, and more!